Time;durP1;ratioP1;P1;durP2;ratioP2;P2;SDS_P1;SDS_P2;PMS_P1;PMS_P2;Temp;Humidity;BMP_temperature;BMP_pressure;BME280_temperature;BME280_humidity;BME280_pressure;Samples;Min_cycle;Max_cycle;Signal;HPM_P1;HPM_P2
2021/11/18 00:00:08;;;;;;;7.28;2.20;;;;;;;19.29;43.05;102585.66;5097562;28;20020;-71
2021/11/18 00:02:33;;;;;;;6.15;2.13;;;;;;;19.26;42.88;102589.31;5097795;28;20016;-70
2021/11/18 00:04:58;;;;;;;5.63;2.22;;;;;;;19.27;42.73;102587.56;5099091;28;20050;-70
2021/11/18 00:07:24;;;;;;;5.17;2.43;;;;;;;19.25;43.01;102590.28;5096694;28;20051;-70
2021/11/18 00:09:49;;;;;;;5.40;2.17;;;;;;;19.23;42.71;102586.84;5092901;28;20285;-70
2021/11/18 00:12:14;;;;;;;5.93;2.42;;;;;;;19.22;42.60;102587.81;5093250;28;20078;-71
2021/11/18 00:14:40;;;;;;;6.28;2.60;;;;;;;19.20;42.75;102587.91;5092479;28;20183;-71
2021/11/18 00:17:05;;;;;;;6.97;2.45;;;;;;;19.19;42.69;102588.84;5093491;28;20046;-70
2021/11/18 00:19:30;;;;;;;7.77;2.40;;;;;;;19.18;42.44;102586.28;5092990;28;20016;-71
2021/11/18 00:21:55;;;;;;;5.72;2.42;;;;;;;19.16;42.70;102593.47;5092176;28;20362;-70
2021/11/18 00:24:21;;;;;;;5.28;2.22;;;;;;;19.14;42.59;102595.34;5092910;28;20040;-71
2021/11/18 00:26:53;;;;;;;5.50;2.40;;;;;;;19.11;42.66;102598.16;5092265;28;20059;-70
2021/11/18 00:29:19;;;;;;;5.55;2.38;;;;;;;19.09;42.91;102595.63;5092036;28;20506;-70
2021/11/18 00:31:44;;;;;;;5.43;2.30;;;;;;;19.07;42.77;102597.47;5092289;28;20024;-70
2021/11/18 00:34:09;;;;;;;5.40;2.30;;;;;;;19.06;42.70;102590.50;5092597;28;20628;-70
2021/11/18 00:36:35;;;;;;;4.97;2.72;;;;;;;19.06;43.00;102594.91;5091626;28;20054;-71
2021/11/18 00:39:03;;;;;;;7.63;2.72;;;;;;;19.04;42.80;102605.56;5092426;28;20575;-70
2021/11/18 00:41:28;;;;;;;5.03;2.30;;;;;;;19.01;42.80;102609.25;5092231;28;20034;-71
2021/11/18 00:43:54;;;;;;;3.97;2.10;;;;;;;18.98;42.81;102617.34;5091626;28;20107;-71
2021/11/18 00:46:20;;;;;;;5.72;2.63;;;;;;;18.97;42.71;102618.28;5092592;28;20032;-69
2021/11/18 00:48:45;;;;;;;6.57;2.30;;;;;;;18.97;42.62;102625.38;5092166;28;20020;-70
2021/11/18 00:51:14;;;;;;;6.10;2.28;;;;;;;18.94;42.69;102623.75;5091652;28;20423;-71
2021/11/18 00:53:49;;;;;;;5.53;2.50;;;;;;;18.93;42.86;102627.34;5091984;28;20032;-71
2021/11/18 00:56:14;;;;;;;5.55;2.50;;;;;;;18.90;42.87;102626.63;5092272;28;20467;-71
2021/11/18 00:58:40;;;;;;;4.97;2.50;;;;;;;18.90;42.62;102634.56;5091601;28;20028;-71
2021/11/18 01:01:06;;;;;;;5.82;2.63;;;;;;;18.89;42.62;102633.72;5092363;28;20544;-71
2021/11/18 01:03:32;;;;;;;5.75;2.70;;;;;;;18.88;42.58;102637.28;5092379;28;20044;-71
2021/11/18 01:05:58;;;;;;;7.28;2.60;;;;;;;18.85;42.74;102633.06;5091822;28;20102;-71
2021/11/18 01:08:23;;;;;;;5.50;2.45;;;;;;;18.85;42.42;102629.56;5092324;28;20024;-71
2021/11/18 01:10:55;;;;;;;5.75;2.60;;;;;;;18.82;42.84;102625.28;5091402;28;20031;-71
2021/11/18 01:13:22;;;;;;;5.18;2.55;;;;;;;18.80;42.49;102634.19;5092358;28;20040;-70
2021/11/18 01:15:48;;;;;;;5.65;2.55;;;;;;;18.82;42.57;102637.63;5091963;28;20032;-71
2021/11/18 01:18:14;;;;;;;6.68;2.88;;;;;;;18.78;42.87;102630.81;5091454;28;20123;-70
2021/11/18 01:20:41;;;;;;;7.13;2.38;;;;;;;18.77;42.62;102616.75;5091617;28;20032;-70
2021/11/18 01:23:10;;;;;;;5.70;2.65;;;;;;;18.75;42.50;102615.97;5092381;28;20085;-70
2021/11/18 01:25:36;;;;;;;5.78;2.42;;;;;;;18.74;42.51;102618.69;5091629;28;20077;-70
2021/11/18 01:28:03;;;;;;;5.35;2.38;;;;;;;18.74;42.64;102623.97;5092207;28;20023;-71
2021/11/18 01:30:31;;;;;;;7.10;3.08;;;;;;;18.72;42.53;102625.88;5091875;28;20032;-69
2021/11/18 01:32:57;;;;;;;5.97;2.60;;;;;;;18.72;42.38;102636.44;5091547;28;20032;-72
2021/11/18 01:35:23;;;;;;;5.30;2.55;;;;;;;18.69;42.80;102632.16;5092324;28;20028;-70
2021/11/18 01:37:48;;;;;;;5.90;2.65;;;;;;;18.68;42.73;102618.09;5092123;28;20039;-70
2021/11/18 01:40:18;;;;;;;6.78;3.03;;;;;;;18.68;42.57;102627.84;5091846;28;20023;-70
2021/11/18 01:42:44;;;;;;;5.43;2.60;;;;;;;18.64;42.72;102626.28;5092490;28;20020;-71
2021/11/18 01:45:12;;;;;;;6.97;3.00;;;;;;;18.64;42.79;102636.84;5095684;28;20020;-71
2021/11/18 01:47:38;;;;;;;5.43;2.70;;;;;;;18.63;42.72;102627.25;5095187;28;20083;-70
2021/11/18 01:50:07;;;;;;;7.50;3.25;;;;;;;18.63;42.48;102636.00;5096200;28;20057;-69
2021/11/18 01:52:33;;;;;;;5.65;2.60;;;;;;;18.61;42.83;102626.44;5096136;28;20035;-70
2021/11/18 01:54:59;;;;;;;6.35;2.95;;;;;;;18.60;42.71;102633.53;5095525;28;20107;-69
2021/11/18 01:57:27;;;;;;;5.18;2.63;;;;;;;18.59;42.31;102644.19;5096046;28;20429;-71
2021/11/18 01:59:55;;;;;;;6.05;2.80;;;;;;;18.58;42.57;102651.25;5095978;28;20641;-71
2021/11/18 02:02:24;;;;;;;6.80;3.15;;;;;;;18.58;42.25;102648.63;5095426;28;20024;-70
2021/11/18 02:05:13;;;;;;;6.65;2.72;;;;;;;18.57;42.73;102648.69;5096014;28;20115;-70
2021/11/18 02:07:44;;;;;;;7.78;2.95;;;;;;;18.55;42.32;102650.53;5095201;28;20093;-70
2021/11/18 02:10:17;;;;;;;7.25;3.13;;;;;;;18.55;42.45;102651.41;5096240;28;20062;-70
2021/11/18 02:12:42;;;;;;;6.63;3.08;;;;;;;18.55;42.54;102658.47;5095453;28;20048;-69
2021/11/18 02:15:29;;;;;;;5.60;2.95;;;;;;;18.54;42.50;102649.72;5095346;28;20054;-70
2021/11/18 02:17:57;;;;;;;7.10;3.45;;;;;;;18.53;42.69;102647.16;5096030;28;20058;-70
2021/11/18 02:20:27;;;;;;;6.63;2.97;;;;;;;18.53;42.32;102647.16;5095835;28;20028;-69
2021/11/18 02:22:54;;;;;;;5.38;2.85;;;;;;;18.50;42.63;102658.75;5095123;28;20023;-69
2021/11/18 02:25:24;;;;;;;6.95;3.22;;;;;;;18.49;42.55;102651.75;5095838;28;20032;-71
2021/11/18 02:27:49;;;;;;;6.18;2.92;;;;;;;18.47;42.37;102651.84;5095276;28;20023;-71
2021/11/18 02:30:15;;;;;;;5.45;2.83;;;;;;;18.47;42.19;102643.06;5094447;28;20092;-70
2021/11/18 02:32:41;;;;;;;6.72;3.17;;;;;;;18.46;42.04;102642.19;5094979;28;20071;-72
2021/11/18 02:35:14;;;;;;;5.82;3.20;;;;;;;18.46;42.27;102650.13;5094913;28;20077;-71
2021/11/18 02:37:41;;;;;;;8.10;3.03;;;;;;;18.45;42.49;102645.78;5094913;28;20097;-71
2021/11/18 02:40:09;;;;;;;6.47;3.42;;;;;;;18.44;42.36;102648.53;5094812;28;20044;-70
2021/11/18 02:42:35;;;;;;;4.97;2.78;;;;;;;18.44;42.49;102653.78;5094203;28;20055;-70
2021/11/18 02:45:01;;;;;;;7.15;3.47;;;;;;;18.42;42.15;102650.38;5095131;28;20205;-69
2021/11/18 02:47:26;;;;;;;8.02;3.63;;;;;;;18.41;42.46;102654.81;5094856;28;20032;-71
2021/11/18 02:49:53;;;;;;;5.97;2.72;;;;;;;18.40;42.33;102650.44;5094678;28;20047;-70
2021/11/18 02:52:25;;;;;;;5.90;2.90;;;;;;;18.39;42.38;102656.69;5095918;28;20035;-70
2021/11/18 02:54:51;;;;;;;6.95;3.10;;;;;;;18.39;42.50;102661.97;5095870;28;20110;-71
2021/11/18 02:57:16;;;;;;;7.88;3.08;;;;;;;18.37;42.64;102657.69;5094288;28;20146;-70
2021/11/18 02:59:42;;;;;;;8.63;2.88;;;;;;;18.38;42.42;102665.53;5094723;28;20168;-70
2021/11/18 03:02:08;;;;;;;7.10;3.30;;;;;;;18.37;42.71;102653.25;5094923;28;20068;-71
2021/11/18 03:04:34;;;;;;;6.57;3.20;;;;;;;18.37;42.63;102663.81;5093806;28;20031;-71
2021/11/18 03:07:00;;;;;;;5.38;2.60;;;;;;;18.34;42.20;102658.72;5094413;28;20440;-70
2021/11/18 03:09:27;;;;;;;7.15;3.33;;;;;;;18.34;42.41;102657.84;5095094;28;20036;-69
2021/11/18 03:11:53;;;;;;;6.75;3.13;;;;;;;18.31;42.60;102659.72;5094483;28;20193;-70
2021/11/18 03:14:19;;;;;;;7.68;3.13;;;;;;;18.33;42.31;102662.28;5096703;28;20027;-69
2021/11/18 03:16:44;;;;;;;6.95;3.08;;;;;;;18.31;42.41;102662.38;5099562;28;20024;-69
2021/11/18 03:19:10;;;;;;;7.13;3.22;;;;;;;18.31;42.45;102654.44;5098112;28;20028;-69
2021/11/18 03:21:35;;;;;;;6.55;3.22;;;;;;;18.31;42.37;102656.25;5097732;28;20049;-69
2021/11/18 03:24:00;;;;;;;7.05;3.80;;;;;;;18.31;42.67;102658.88;5098109;28;20494;-69
2021/11/18 03:26:29;;;;;;;6.45;3.05;;;;;;;18.30;42.53;102652.72;5096683;28;20091;-71
2021/11/18 03:28:59;;;;;;;6.13;3.03;;;;;;;18.30;42.47;102657.16;5095335;28;20024;-69
2021/11/18 03:31:25;;;;;;;8.07;3.03;;;;;;;18.29;42.53;102655.44;5093661;28;20024;-70
2021/11/18 03:33:58;;;;;;;6.32;3.28;;;;;;;18.28;42.37;102654.63;5093946;28;20039;-70
2021/11/18 03:36:26;;;;;;;9.07;3.30;;;;;;;18.28;42.41;102657.25;5093986;28;20024;-70
2021/11/18 03:38:53;;;;;;;6.03;3.00;;;;;;;18.28;42.40;102659.06;5093064;28;20115;-69
2021/11/18 03:41:19;;;;;;;6.97;3.17;;;;;;;18.29;42.47;102658.09;5094133;28;20036;-70
2021/11/18 03:43:51;;;;;;;6.40;3.35;;;;;;;18.30;42.45;102665.94;5093741;28;20020;-70
2021/11/18 03:46:19;;;;;;;6.95;3.30;;;;;;;18.31;42.53;102665.00;5093212;28;20020;-70
2021/11/18 03:48:45;;;;;;;7.00;3.35;;;;;;;18.33;42.38;102657.00;5093355;28;20463;-70
2021/11/18 03:51:11;;;;;;;8.00;3.22;;;;;;;18.36;42.57;102654.22;5093956;28;20131;-69
2021/11/18 03:53:38;;;;;;;7.53;3.53;;;;;;;18.36;42.57;102662.13;5093590;28;20044;-70
2021/11/18 03:56:13;;;;;;;7.57;3.50;;;;;;;18.40;42.47;102665.44;5093945;28;20093;-71
2021/11/18 03:58:39;;;;;;;6.82;3.28;;;;;;;18.40;42.38;102666.28;5093609;28;20131;-70
2021/11/18 04:01:05;;;;;;;6.80;3.13;;;;;;;18.41;42.39;102668.00;5092727;28;20035;-70
2021/11/18 04:03:31;;;;;;;5.75;3.35;;;;;;;18.40;42.13;102671.56;5093542;28;20032;-71
2021/11/18 04:05:57;;;;;;;8.02;3.22;;;;;;;18.43;42.39;102675.84;5093323;28;20040;-70
2021/11/18 04:08:23;;;;;;;8.45;3.80;;;;;;;18.43;42.30;102676.69;5092718;28;20020;-69
2021/11/18 04:10:49;;;;;;;7.70;3.47;;;;;;;18.45;42.30;102671.31;5093038;28;20032;-70
2021/11/18 04:13:14;;;;;;;7.38;3.60;;;;;;;18.45;42.16;102672.19;5093247;28;20067;-68
2021/11/18 04:15:42;;;;;;;7.45;3.55;;;;;;;18.46;42.23;102676.53;5092050;28;20089;-69
2021/11/18 04:18:08;;;;;;;7.25;3.40;;;;;;;18.47;42.26;102674.75;5093385;28;20028;-69
2021/11/18 04:20:34;;;;;;;7.57;3.80;;;;;;;18.46;42.25;102675.69;5092849;28;20051;-69
2021/11/18 04:23:01;;;;;;;8.20;3.00;;;;;;;18.47;42.02;102677.41;5092844;28;20074;-69
2021/11/18 04:25:31;;;;;;;7.07;3.00;;;;;;;18.46;42.27;102658.03;5092832;28;20119;-69
2021/11/18 04:27:58;;;;;;;7.45;4.00;;;;;;;18.48;42.38;102668.53;5092270;28;20028;-70
2021/11/18 04:30:28;;;;;;;6.88;3.60;;;;;;;18.47;41.96;102666.84;5092836;28;20032;-70
2021/11/18 04:32:53;;;;;;;7.72;3.47;;;;;;;18.46;42.30;102671.25;5093119;28;20047;-70
2021/11/18 04:35:19;;;;;;;5.97;3.03;;;;;;;18.46;42.10;102665.97;5092207;28;20467;-70
2021/11/18 04:37:44;;;;;;;6.93;3.53;;;;;;;18.46;42.29;102665.97;5092598;28;20024;-70
2021/11/18 04:40:11;;;;;;;7.05;3.55;;;;;;;18.46;42.16;102671.25;5092791;28;20429;-69
2021/11/18 04:42:37;;;;;;;6.60;3.33;;;;;;;18.47;42.62;102674.75;5091893;28;20090;-70
2021/11/18 04:45:04;;;;;;;6.68;3.17;;;;;;;18.49;42.11;102678.16;5092632;28;20475;-70
2021/11/18 04:47:29;;;;;;;7.53;3.20;;;;;;;18.50;42.13;102671.94;5092318;28;20024;-71
2021/11/18 04:49:54;;;;;;;6.47;3.40;;;;;;;18.49;41.98;102668.44;5092090;28;20472;-71
2021/11/18 04:52:20;;;;;;;7.50;3.33;;;;;;;18.51;42.04;102672.78;5092628;28;20055;-71
2021/11/18 04:54:46;;;;;;;11.80;3.40;;;;;;;18.52;41.90;102672.72;5092438;28;20849;-70
2021/11/18 04:57:12;;;;;;;7.07;3.53;;;;;;;18.53;42.16;102678.84;5091757;28;20479;-71
2021/11/18 04:59:37;;;;;;;6.65;3.45;;;;;;;18.53;42.04;102679.69;5092276;28;20043;-71
2021/11/18 05:02:04;;;;;;;7.18;3.38;;;;;;;18.54;41.78;102667.34;5092370;28;20028;-71
2021/11/18 05:04:29;;;;;;;8.60;3.80;;;;;;;18.54;42.16;102670.00;5091621;28;20035;-71
2021/11/18 05:06:55;;;;;;;8.55;3.85;;;;;;;18.55;42.15;102661.09;5092599;28;20028;-71
2021/11/18 05:09:20;;;;;;;8.00;3.70;;;;;;;18.52;41.96;102656.88;5092642;28;20269;-70
2021/11/18 05:11:46;;;;;;;7.88;3.20;;;;;;;18.53;42.12;102666.47;5091152;28;20049;-71
2021/11/18 05:14:12;;;;;;;7.57;3.40;;;;;;;18.52;41.84;102663.91;5092524;28;20139;-70
2021/11/18 05:16:38;;;;;;;6.50;3.42;;;;;;;18.52;42.17;102663.91;5091993;28;20019;-69
2021/11/18 05:19:04;;;;;;;6.18;3.22;;;;;;;18.52;42.01;102662.16;5093329;28;20107;-70
2021/11/18 05:21:31;;;;;;;6.32;3.15;;;;;;;18.51;41.96;102668.34;5096337;28;20088;-70
2021/11/18 05:23:58;;;;;;;6.68;3.08;;;;;;;18.50;41.67;102666.66;5095812;28;20028;-70
2021/11/18 05:26:24;;;;;;;6.57;3.50;;;;;;;18.52;41.73;102679.75;5096446;28;20060;-70
2021/11/18 05:28:50;;;;;;;7.57;3.42;;;;;;;18.51;42.19;102673.63;5095957;28;20058;-70
2021/11/18 05:31:17;;;;;;;7.28;3.72;;;;;;;18.51;42.12;102667.50;5095771;28;20024;-69
2021/11/18 05:33:44;;;;;;;6.57;3.00;;;;;;;18.52;41.97;102671.84;5096214;28;20024;-70
2021/11/18 05:36:09;;;;;;;7.38;3.50;;;;;;;18.51;41.85;102672.78;5096319;28;20031;-70
2021/11/18 05:38:35;;;;;;;7.55;3.30;;;;;;;18.50;42.05;102669.31;5095104;28;20036;-71
2021/11/18 05:41:01;;;;;;;7.95;3.85;;;;;;;18.52;41.78;102656.88;5096093;28;20040;-70
2021/11/18 05:43:29;;;;;;;7.68;3.38;;;;;;;18.51;41.89;102657.78;5096139;28;20367;-71
2021/11/18 05:45:55;;;;;;;7.22;3.45;;;;;;;18.53;41.99;102652.44;5095539;28;20429;-70
2021/11/18 05:48:21;;;;;;;7.57;3.67;;;;;;;18.54;41.95;102652.34;5096179;28;20028;-70
2021/11/18 05:50:50;;;;;;;7.68;3.17;;;;;;;18.52;41.48;102653.34;5095652;28;20028;-70
2021/11/18 05:53:23;;;;;;;7.97;3.45;;;;;;;18.52;41.55;102662.16;5095186;28;20028;-70
2021/11/18 05:55:48;;;;;;;8.68;3.55;;;;;;;18.53;41.74;102663.84;5095539;28;20031;-70
2021/11/18 05:58:14;;;;;;;6.65;3.10;;;;;;;18.53;41.70;102666.47;5095997;28;20370;-70
2021/11/18 06:00:39;;;;;;;7.57;3.35;;;;;;;18.53;41.55;102665.63;5094836;28;20020;-70
2021/11/18 06:03:05;;;;;;;6.32;3.55;;;;;;;18.53;41.61;102670.91;5095932;28;20077;-69
2021/11/18 06:05:31;;;;;;;7.50;3.40;;;;;;;18.52;41.72;102680.63;5095553;28;20435;-71
2021/11/18 06:07:57;;;;;;;7.57;3.45;;;;;;;18.51;41.72;102676.28;5094979;28;20043;-71
2021/11/18 06:10:25;;;;;;;7.72;3.47;;;;;;;18.51;41.83;102672.78;5095531;28;20024;-71
2021/11/18 06:12:50;;;;;;;7.20;3.60;;;;;;;18.52;42.13;102677.13;5094334;28;20108;-70
2021/11/18 06:15:16;;;;;;;6.40;3.20;;;;;;;18.53;43.42;102670.91;5093729;28;20020;-70
2021/11/18 06:17:42;;;;;;;6.60;3.10;;;;;;;18.53;43.71;102671.75;5094144;28;20020;-70
2021/11/18 06:20:09;;;;;;;6.88;3.08;;;;;;;18.56;44.21;102674.22;5094347;28;20027;-70
2021/11/18 06:22:34;;;;;;;6.43;2.80;;;;;;;18.59;43.68;102676.72;5093342;28;20081;-72
2021/11/18 06:25:00;;;;;;;6.00;2.70;;;;;;;18.61;44.02;102682.78;5094136;28;20032;-70
2021/11/18 06:27:26;;;;;;;7.60;3.40;;;;;;;18.65;43.77;102683.47;5093535;28;20036;-70
2021/11/18 06:29:51;;;;;;;8.02;3.28;;;;;;;18.68;43.63;102675.38;5093812;28;20024;-70
2021/11/18 06:32:17;;;;;;;7.15;3.20;;;;;;;18.71;43.69;102677.84;5094230;28;20024;-71
2021/11/18 06:34:43;;;;;;;6.07;2.83;;;;;;;18.74;43.80;102676.81;5093005;28;20467;-71
2021/11/18 06:37:10;;;;;;;5.97;2.80;;;;;;;18.77;43.77;102680.16;5094410;28;20028;-71
2021/11/18 06:39:38;;;;;;;5.57;2.80;;;;;;;18.80;43.63;102671.19;5093469;28;20048;-71
2021/11/18 06:42:05;;;;;;;9.20;3.08;;;;;;;18.82;43.19;102675.47;5093018;28;20391;-71
2021/11/18 06:44:31;;;;;;;8.80;3.72;;;;;;;18.82;42.03;102685.19;5093730;28;20024;-69
2021/11/18 06:46:56;;;;;;;7.43;3.10;;;;;;;18.83;43.00;102689.50;5094045;28;20455;-72
2021/11/18 06:49:22;;;;;;;8.63;3.22;;;;;;;18.82;42.95;102688.66;5092962;28;20024;-69
2021/11/18 06:51:48;;;;;;;7.80;3.08;;;;;;;18.88;42.84;102699.84;5093568;28;20025;-74
2021/11/18 06:54:15;;;;;;;7.20;2.53;;;;;;;18.90;42.80;102696.19;5093948;28;20036;-69
2021/11/18 06:56:40;;;;;;;6.82;2.75;;;;;;;18.94;43.19;102699.53;5092753;28;20028;-69
2021/11/18 06:59:06;;;;;;;7.45;3.00;;;;;;;18.98;42.92;102695.78;5093581;28;20051;-68
2021/11/18 07:01:32;;;;;;;6.68;3.33;;;;;;;19.01;43.09;102699.09;5093194;28;20024;-69
2021/11/18 07:03:57;;;;;;;6.80;3.03;;;;;;;19.03;42.67;102696.38;5092630;28;20026;-71
2021/11/18 07:06:25;;;;;;;6.67;3.10;;;;;;;19.06;43.03;102690.03;5093295;28;20027;-67
2021/11/18 07:08:51;;;;;;;6.82;3.00;;;;;;;19.08;42.51;102702.25;5093150;28;20277;-68
2021/11/18 07:11:19;;;;;;;7.57;2.97;;;;;;;19.10;43.15;102699.50;5056803;28;1017088;-68
2021/11/18 07:13:45;;;;;;;6.88;2.78;;;;;;;19.13;43.20;102705.47;5094057;28;20036;-68
2021/11/18 07:16:14;;;;;;;6.55;2.60;;;;;;;19.14;43.21;102704.53;5094131;28;20375;-67
2021/11/18 07:18:40;;;;;;;7.82;3.00;;;;;;;19.16;43.26;102705.31;5093133;28;20031;-69
2021/11/18 07:21:06;;;;;;;6.65;3.30;;;;;;;19.18;43.32;102707.84;5094045;28;20028;-69
2021/11/18 07:23:34;;;;;;;7.15;2.80;;;;;;;19.19;43.34;102710.41;5093440;28;20024;-69
2021/11/18 07:26:01;;;;;;;8.48;3.05;;;;;;;19.21;43.11;102697.13;5094310;28;20032;-70
2021/11/18 07:28:30;;;;;;;7.50;3.10;;;;;;;19.23;43.29;102704.97;5093677;28;20020;-69
2021/11/18 07:30:55;;;;;;;6.63;2.92;;;;;;;19.25;43.01;102705.72;5093346;28;20043;-70
2021/11/18 07:33:23;;;;;;;6.28;2.80;;;;;;;19.25;43.19;102693.38;5094236;28;20024;-72
2021/11/18 07:35:50;;;;;;;6.07;2.67;;;;;;;19.27;43.37;102701.22;5094110;28;20032;-73
2021/11/18 07:38:17;;;;;;;5.18;2.65;;;;;;;19.28;43.62;102702.91;5094718;28;20115;-73
2021/11/18 07:40:44;;;;;;;6.20;2.90;;;;;;;19.29;43.13;102707.25;5094871;28;20081;-73
2021/11/18 07:43:12;;;;;;;6.97;3.15;;;;;;;19.29;43.51;102720.47;5094722;28;20114;-72
2021/11/18 07:45:37;;;;;;;7.40;3.08;;;;;;;19.30;43.62;102725.69;5094130;28;20106;-74
2021/11/18 07:48:02;;;;;;;9.43;3.25;;;;;;;19.28;42.52;102729.34;5094063;28;20024;-75
2021/11/18 07:50:29;;;;;;;8.45;3.22;;;;;;;19.24;43.24;102728.66;5094388;28;20032;-74
2021/11/18 07:52:54;;;;;;;6.78;2.92;;;;;;;19.27;43.54;102732.94;5093416;28;20091;-76
2021/11/18 07:55:21;;;;;;;7.55;2.75;;;;;;;19.28;43.68;102739.91;5093942;28;20545;-68
2021/11/18 07:57:48;;;;;;;6.25;2.85;;;;;;;19.28;43.41;102743.44;5093990;28;20514;-76
2021/11/18 08:00:18;;;;;;;8.77;3.45;;;;;;;19.29;43.10;102754.84;5092918;28;20498;-69
2021/11/18 08:02:44;;;;;;;7.70;2.95;;;;;;;19.29;43.67;102752.19;5094405;28;20024;-69
2021/11/18 08:05:10;;;;;;;8.25;3.22;;;;;;;19.28;43.40;102756.63;5094486;28;20103;-69
2021/11/18 08:07:36;;;;;;;7.30;2.60;;;;;;;19.29;43.22;102760.97;5093269;28;20103;-70
2021/11/18 08:10:04;;;;;;;9.80;2.78;;;;;;;19.31;43.54;102769.69;5094408;28;20043;-71
2021/11/18 08:12:30;;;;;;;8.68;2.85;;;;;;;19.32;43.32;102763.44;5094228;28;20040;-70
2021/11/18 08:14:55;;;;;;;7.07;2.60;;;;;;;19.33;43.36;102770.44;5093495;28;20035;-70
2021/11/18 08:17:22;;;;;;;8.77;2.87;;;;;;;19.35;43.58;102775.66;5094490;28;20027;-70
2021/11/18 08:19:50;;;;;;;8.10;3.10;;;;;;;19.36;43.77;102769.44;5095143;28;20284;-74
2021/11/18 08:22:16;;;;;;;8.15;2.72;;;;;;;19.36;43.63;102762.34;5097408;28;20028;-68
2021/11/18 08:24:43;;;;;;;7.97;2.80;;;;;;;19.37;43.71;102764.03;5096154;28;20028;-72
2021/11/18 08:27:09;;;;;;;12.15;3.08;;;;;;;19.43;43.52;102768.13;5097857;28;20115;-74
2021/11/18 08:29:35;;;;;;;7.63;2.63;;;;;;;19.53;43.18;102771.94;5093750;28;20040;-72
2021/11/18 08:32:00;;;;;;;6.78;2.60;;;;;;;19.62;43.30;102778.53;5093289;28;20031;-74
2021/11/18 08:34:26;;;;;;;9.15;2.92;;;;;;;19.69;43.06;102768.44;5094261;28;20031;-72
2021/11/18 08:36:52;;;;;;;9.13;3.05;;;;;;;19.76;42.85;102756.59;5094588;28;20028;-74
2021/11/18 08:39:19;;;;;;;7.45;2.70;;;;;;;19.80;43.02;102746.69;5093810;28;20028;-67
2021/11/18 08:41:47;;;;;;;7.43;2.83;;;;;;;19.74;43.06;102745.19;5091932;28;20032;-76
2021/11/18 08:44:12;;;;;;;8.50;3.08;;;;;;;19.72;42.98;102747.09;5093511;28;20031;-72
2021/11/18 08:46:38;;;;;;;7.93;3.03;;;;;;;19.66;43.10;102752.72;5092496;28;20024;-68
2021/11/18 08:49:03;;;;;;;10.48;3.40;;;;;;;19.62;43.35;102759.16;5092102;28;20059;-69
2021/11/18 08:51:33;;;;;;;7.55;2.53;;;;;;;19.55;43.67;102751.56;5092599;28;20027;-70
2021/11/18 08:54:00;;;;;;;8.45;3.10;;;;;;;19.54;43.38;102749.00;5093101;28;20111;-70
2021/11/18 08:56:26;;;;;;;9.35;3.38;;;;;;;19.51;43.64;102742.09;5092431;28;20387;-73
2021/11/18 08:58:56;;;;;;;10.52;3.38;;;;;;;19.49;43.94;102727.28;5093038;28;20028;-68
2021/11/18 09:01:54;;;;;;;7.95;2.85;;;;;;;19.47;43.78;102731.78;5092633;28;20487;-68
2021/11/18 09:04:23;;;;;;;10.27;2.80;;;;;;;19.46;43.67;102749.44;5087882;28;20115;-70
2021/11/18 09:06:49;;;;;;;6.63;2.60;;;;;;;19.45;43.87;102752.19;5092933;28;20031;-70
2021/11/18 09:09:16;;;;;;;6.85;2.80;;;;;;;19.43;44.00;102752.25;5092803;28;20039;-72
2021/11/18 09:11:44;;;;;;;7.70;3.03;;;;;;;19.42;44.16;102744.41;5092215;28;20139;-72
2021/11/18 09:14:10;;;;;;;9.32;3.13;;;;;;;19.42;44.17;102749.72;5093011;28;20031;-71
2021/11/18 09:16:37;;;;;;;7.20;2.70;;;;;;;19.41;44.04;102746.22;5091905;28;20036;-68
2021/11/18 09:19:08;;;;;;;7.78;2.90;;;;;;;19.39;43.93;102753.38;5092493;28;20035;-69
2021/11/18 09:21:35;;;;;;;9.02;3.13;;;;;;;19.38;43.99;102754.31;5092215;28;20066;-68
2021/11/18 09:24:11;;;;;;;8.25;2.88;;;;;;;19.36;44.33;102764.16;5091672;28;20031;-70
2021/11/18 09:26:39;;;;;;;6.97;2.88;;;;;;;19.36;44.30;102769.44;5092098;28;20042;-73
2021/11/18 09:29:05;;;;;;;7.70;2.85;;;;;;;19.36;44.18;102774.72;5092565;28;20024;-74
2021/11/18 09:31:31;;;;;;;7.43;2.83;;;;;;;19.36;44.26;102783.50;5091795;28;20017;-72
2021/11/18 09:33:57;;;;;;;10.65;2.80;;;;;;;19.37;44.26;102785.19;5092581;28;20039;-69
2021/11/18 09:36:24;;;;;;;7.85;2.72;;;;;;;19.38;44.25;102783.41;5092400;28;20074;-72
2021/11/18 09:38:52;;;;;;;9.55;3.00;;;;;;;19.37;44.54;102774.59;5092518;28;20054;-79
2021/11/18 09:41:26;;;;;;;8.23;3.13;;;;;;;19.44;44.41;102779.56;5093805;28;20371;-75
2021/11/18 09:44:12;;;;;;;7.50;2.75;;;;;;;19.52;44.39;102766.78;5092869;28;20071;-70
2021/11/18 09:46:40;;;;;;;8.52;2.70;;;;;;;19.61;44.21;102773.31;5093135;28;20045;-76
2021/11/18 09:49:32;;;;;;;8.45;2.78;;;;;;;19.67;43.82;102779.09;5094047;28;20032;-71
2021/11/18 09:52:06;;;;;;;6.50;2.97;;;;;;;19.76;43.90;102793.63;5088644;28;20119;-74
2021/11/18 09:54:57;;;;;;;7.35;2.67;;;;;;;19.85;43.91;102798.41;5091702;28;20040;-72
2021/11/18 09:57:31;;;;;;;6.78;2.70;;;;;;;19.94;43.63;102795.19;5092392;28;20479;-73
2021/11/18 10:00:10;;;;;;;7.38;3.28;;;;;;;20.01;43.46;102801.00;5092264;28;20101;-73
2021/11/18 10:02:56;;;;;;;8.48;2.58;;;;;;;20.06;43.53;102801.59;5092934;28;20383;-73
2021/11/18 10:05:25;;;;;;;7.90;2.58;;;;;;;20.10;43.15;102799.59;5093135;28;20048;-76
2021/11/18 10:08:05;;;;;;;10.25;3.17;;;;;;;20.10;43.31;102804.91;5096329;28;20024;-72
2021/11/18 10:10:38;;;;;;;6.38;2.65;;;;;;;20.05;43.39;102812.25;5095994;28;20056;-74
2021/11/18 10:13:40;;;;;;;7.85;2.75;;;;;;;19.97;43.61;102812.69;5095374;28;20036;-71
2021/11/18 10:16:15;;;;;;;7.43;2.60;;;;;;;19.89;43.73;102818.44;5096182;28;20097;-71
2021/11/18 10:18:44;;;;;;;7.78;2.78;;;;;;;19.82;42.91;102822.38;5096446;28;20415;-75
2021/11/18 10:21:09;;;;;;;8.68;2.60;;;;;;;19.77;43.42;102824.41;5096204;28;20097;-75
2021/11/18 10:23:34;;;;;;;7.47;2.95;;;;;;;19.70;43.51;102815.97;5096167;28;20529;-75
2021/11/18 10:26:18;;;;;;;9.43;3.05;;;;;;;19.69;43.57;102805.47;5096412;28;20057;-75
2021/11/18 10:29:09;;;;;;;5.40;2.60;;;;;;;19.62;43.39;102804.97;5095794;28;20108;-74
2021/11/18 10:31:49;;;;;;;10.10;3.08;;;;;;;19.60;43.61;102800.69;5096348;28;20024;-75
2021/11/18 10:34:22;;;;;;;6.90;2.70;;;;;;;19.57;43.66;102809.66;5096235;28;20020;-75
2021/11/18 10:37:15;;;;;;;6.95;2.53;;;;;;;19.53;43.81;102792.25;5096221;28;20419;-75
2021/11/18 10:39:40;;;;;;;8.48;2.67;;;;;;;19.52;43.77;102790.56;5096222;28;20119;-74
2021/11/18 10:42:13;;;;;;;7.33;2.87;;;;;;;19.50;43.55;102792.44;5095937;28;20060;-73
2021/11/18 10:45:02;;;;;;;8.48;2.88;;;;;;;19.50;43.85;102795.06;5096190;28;20020;-75
2021/11/18 10:47:54;;;;;;;6.45;2.25;;;;;;;19.49;42.92;102777.53;5095200;28;20036;-70
2021/11/18 10:50:43;;;;;;;8.15;3.35;;;;;;;19.37;43.40;102774.59;5095340;28;20044;-72
2021/11/18 10:53:21;;;;;;;6.78;2.55;;;;;;;19.34;44.15;102766.00;5094971;28;20091;-73
2021/11/18 10:56:10;;;;;;;8.50;2.67;;;;;;;19.34;44.07;102779.22;5094399;28;20028;-73
2021/11/18 10:58:44;;;;;;;8.93;2.95;;;;;;;19.34;43.69;102760.72;5094526;28;20031;-74
2021/11/18 11:01:29;;;;;;;;;;;;;;;19.31;43.61;102766.16;5095213;28;20028;-69
2021/11/18 11:04:04;;;;;;;7.68;3.30;;;;;;;19.30;43.40;102759.19;5094489;28;19912;-72
2021/11/18 11:06:45;;;;;;;10.38;5.03;;;;;;;19.29;43.85;102774.19;5094413;28;20130;-73
2021/11/18 11:09:13;;;;;;;19.75;14.55;;;;;;;19.29;44.14;102768.91;5093957;28;20421;-70
2021/11/18 11:12:02;;;;;;;34.15;27.85;;;;;;;19.30;44.26;102767.97;5093986;28;20495;-70
2021/11/18 11:15:04;;;;;;;39.58;35.28;;;;;;;19.32;44.59;102762.59;5094084;28;20025;-71
2021/11/18 11:17:35;;;;;;;41.65;37.13;;;;;;;19.36;44.70;102756.22;5092678;28;20048;-73
2021/11/18 11:20:13;;;;;;;43.38;37.30;;;;;;;19.35;44.60;102747.41;5094471;28;20494;-72
2021/11/18 11:23:02;;;;;;;46.70;39.67;;;;;;;19.37;44.73;102750.81;5093237;28;20048;-70
2021/11/18 11:25:49;;;;;;;42.53;38.00;;;;;;;19.38;44.80;102749.88;5094553;28;20425;-72
2021/11/18 11:28:34;;;;;;;43.17;38.60;;;;;;;19.39;44.97;102746.31;5095320;28;20138;-73
2021/11/18 11:31:22;;;;;;;48.50;40.38;;;;;;;19.40;45.20;102749.78;5094027;28;20135;-71